createdAt,value
2023-01-17T00:02:12.553Z,20.95
2023-01-17T00:04:58.365Z,19.80
2023-01-17T00:07:44.660Z,19.67
2023-01-17T00:10:15.423Z,20.40
2023-01-17T00:12:55.539Z,20.45
2023-01-17T00:15:23.734Z,20.40
2023-01-17T00:17:51.831Z,18.40
2023-01-17T00:20:49.278Z,18.90
2023-01-17T00:23:43.034Z,19.65
2023-01-17T00:26:13.772Z,20.70
2023-01-17T00:28:42.110Z,19.97
2023-01-17T00:31:10.977Z,18.33
2023-01-17T00:33:38.424Z,18.92
2023-01-17T00:36:06.836Z,20.65
2023-01-17T00:38:36.335Z,19.50
2023-01-17T00:41:08.625Z,20.52
2023-01-17T00:43:54.951Z,20.13
2023-01-17T00:46:40.933Z,21.42
2023-01-17T00:49:27.174Z,19.75
2023-01-17T00:52:13.189Z,20.83
2023-01-17T00:54:59.114Z,20.48
2023-01-17T00:57:45.043Z,20.70
2023-01-17T01:00:31.600Z,20.55
2023-01-17T01:03:17.725Z,22.48
2023-01-17T01:06:03.670Z,20.48
2023-01-17T01:08:49.720Z,20.83
2023-01-17T01:11:38.835Z,21.17
2023-01-17T01:14:26.212Z,20.92
2023-01-17T01:17:12.151Z,20.80
2023-01-17T01:19:58.300Z,20.80
2023-01-17T01:22:44.217Z,19.30
2023-01-17T01:25:30.512Z,21.30
2023-01-17T01:28:29.360Z,20.30
2023-01-17T01:31:17.814Z,21.40
2023-01-17T01:33:45.048Z,21.13
2023-01-17T01:36:12.460Z,21.33
2023-01-17T01:38:39.851Z,20.92
2023-01-17T01:41:07.492Z,20.52
2023-01-17T01:43:54.926Z,19.58
2023-01-17T01:46:39.539Z,22.83
2023-01-17T01:49:12.619Z,21.65
2023-01-17T01:51:43.435Z,20.95
2023-01-17T01:54:20.902Z,21.02
2023-01-17T01:56:49.284Z,20.10
2023-01-17T01:59:19.668Z,20.92
2023-01-17T02:01:48.193Z,21.67
2023-01-17T02:04:15.654Z,20.17
2023-01-17T02:06:48.079Z,21.50
2023-01-17T02:09:16.954Z,21.50
2023-01-17T02:11:45.692Z,20.73
2023-01-17T02:14:20.819Z,21.92
2023-01-17T02:17:11.154Z,21.08
2023-01-17T02:20:07.097Z,21.95
2023-01-17T02:22:40.120Z,22.30
2023-01-17T02:25:16.195Z,19.67
2023-01-17T02:28:25.533Z,20.00
2023-01-17T02:31:02.545Z,20.98
2023-01-17T02:33:40.378Z,20.45
2023-01-17T02:36:23.624Z,21.10
2023-01-17T02:39:24.296Z,21.05
2023-01-17T02:42:00.833Z,20.42
2023-01-17T02:44:28.071Z,21.60
2023-01-17T02:46:57.545Z,21.15
2023-01-17T02:49:28.666Z,21.53
2023-01-17T02:52:29.978Z,20.98
2023-01-17T02:55:32.409Z,21.70
2023-01-17T02:58:39.710Z,21.27
2023-01-17T03:01:31.020Z,21.67
2023-01-17T03:04:06.037Z,21.15
2023-01-17T03:06:43.742Z,22.05
2023-01-17T03:09:12.260Z,21.33
2023-01-17T03:11:39.413Z,21.63
2023-01-17T03:14:06.614Z,23.50
2023-01-17T03:16:34.248Z,20.20
2023-01-17T03:19:01.974Z,20.87
2023-01-17T03:21:28.986Z,21.50
2023-01-17T03:23:56.113Z,21.47
2023-01-17T03:26:23.318Z,22.25
2023-01-17T03:28:50.731Z,21.95
2023-01-17T03:31:19.929Z,22.02
2023-01-17T03:33:47.236Z,22.00
2023-01-17T03:36:14.554Z,22.50
2023-01-17T03:38:41.731Z,21.85
2023-01-17T03:41:08.889Z,21.05
2023-01-17T03:43:36.107Z,22.08
2023-01-17T03:46:08.082Z,21.73
2023-01-17T03:48:35.283Z,18.93
2023-01-17T03:51:02.500Z,19.13
2023-01-17T03:53:29.749Z,20.27
2023-01-17T03:55:56.967Z,19.45
2023-01-17T03:58:24.189Z,18.95
2023-01-17T04:00:51.394Z,20.65
2023-01-17T04:03:18.630Z,19.10
2023-01-17T04:05:45.964Z,19.27
2023-01-17T04:08:13.130Z,19.63
2023-01-17T04:10:40.340Z,19.65
2023-01-17T04:13:07.517Z,20.40
2023-01-17T04:15:34.709Z,20.63
2023-01-17T04:18:03.677Z,18.03
2023-01-17T04:20:35.345Z,21.17
2023-01-17T04:23:02.736Z,20.55
2023-01-17T04:25:30.833Z,19.80
2023-01-17T04:27:59.471Z,23.40
2023-01-17T04:30:27.521Z,19.42
2023-01-17T04:32:55.467Z,20.73
2023-01-17T04:35:23.282Z,19.07
2023-01-17T04:37:50.789Z,20.98
2023-01-17T04:40:18.565Z,20.40
2023-01-17T04:42:45.843Z,19.80
2023-01-17T04:45:13.701Z,21.80
2023-01-17T04:47:41.380Z,22.55
2023-01-17T04:50:09.659Z,20.67
2023-01-17T04:52:36.900Z,21.13
2023-01-17T04:55:04.595Z,21.42
2023-01-17T04:57:31.836Z,22.45
2023-01-17T04:59:59.174Z,23.55
2023-01-17T05:02:26.437Z,21.77
2023-01-17T05:04:53.669Z,21.20
2023-01-17T05:07:20.827Z,21.50
2023-01-17T05:09:47.988Z,22.35
2023-01-17T05:12:15.121Z,20.73
2023-01-17T05:14:42.414Z,21.70
2023-01-17T05:17:11.103Z,22.02
2023-01-17T05:19:38.277Z,22.13
2023-01-17T05:22:15.023Z,23.23
2023-01-17T05:24:43.883Z,20.88
2023-01-17T05:27:12.747Z,22.40
2023-01-17T05:29:40.722Z,22.55
2023-01-17T05:32:08.041Z,20.87
2023-01-17T05:34:35.311Z,22.47
2023-01-17T05:37:02.507Z,21.95
2023-01-17T05:39:30.847Z,21.83
2023-01-17T05:41:59.054Z,22.33
2023-01-17T05:44:27.727Z,21.08
2023-01-17T05:46:55.803Z,21.80
2023-01-17T05:49:23.035Z,22.38
2023-01-17T05:51:50.436Z,22.05
2023-01-17T05:54:17.784Z,21.75
2023-01-17T05:56:45.039Z,21.80
2023-01-17T05:59:14.192Z,19.63
2023-01-17T06:01:41.574Z,21.40
2023-01-17T06:04:08.791Z,20.70
2023-01-17T06:06:35.997Z,20.85
2023-01-17T06:09:03.169Z,20.45
2023-01-17T06:11:30.310Z,19.98
2023-01-17T06:13:57.480Z,20.70
2023-01-17T06:16:24.778Z,21.83
2023-01-17T06:18:52.029Z,21.70
2023-01-17T06:21:19.701Z,20.98
2023-01-17T06:23:46.852Z,21.20
2023-01-17T06:26:14.018Z,22.35
2023-01-17T06:28:41.177Z,20.35
2023-01-17T06:31:09.304Z,21.10
2023-01-17T06:33:36.656Z,21.50
2023-01-17T06:36:04.218Z,21.30
2023-01-17T06:38:31.534Z,21.52
2023-01-17T06:41:00.270Z,21.17
2023-01-17T06:43:32.526Z,22.20
2023-01-17T06:46:00.784Z,22.47
2023-01-17T06:48:28.321Z,21.13
2023-01-17T06:50:57.638Z,20.97
2023-01-17T06:53:24.895Z,20.63
2023-01-17T06:55:55.039Z,22.17
2023-01-17T06:58:22.190Z,20.48
2023-01-17T07:00:49.518Z,21.52
2023-01-17T07:03:25.205Z,21.58
2023-01-17T07:05:53.053Z,21.92
2023-01-17T07:08:20.403Z,21.63
2023-01-17T07:10:48.803Z,20.92
2023-01-17T07:13:16.091Z,20.88
2023-01-17T07:15:43.316Z,18.90
2023-01-17T07:18:10.486Z,19.98
2023-01-17T07:20:38.416Z,21.40
2023-01-17T07:23:06.691Z,19.13
2023-01-17T07:25:33.906Z,20.60
2023-01-17T07:28:01.099Z,20.35
2023-01-17T07:30:28.387Z,20.05
2023-01-17T07:32:56.127Z,20.58
2023-01-17T07:35:26.672Z,20.55
2023-01-17T07:37:54.831Z,19.98
2023-01-17T07:40:22.771Z,19.83
2023-01-17T07:42:50.076Z,20.50
2023-01-17T07:45:17.909Z,21.30
2023-01-17T07:47:45.334Z,21.50
2023-01-17T07:50:13.614Z,22.23
2023-01-17T07:52:40.904Z,21.58
2023-01-17T07:55:08.917Z,20.73
2023-01-17T07:57:36.133Z,21.05
2023-01-17T08:00:04.679Z,20.88
2023-01-17T08:02:39.280Z,22.13
2023-01-17T08:05:06.760Z,21.00
2023-01-17T08:07:34.468Z,20.38
2023-01-17T08:10:01.978Z,20.75
2023-01-17T08:12:29.494Z,22.25
2023-01-17T08:14:56.914Z,21.13
2023-01-17T08:17:24.065Z,19.70
2023-01-17T08:19:52.129Z,20.00
2023-01-17T08:22:19.455Z,20.10
2023-01-17T08:24:47.411Z,19.27
2023-01-17T08:27:15.214Z,20.40
2023-01-17T08:29:46.884Z,21.27
2023-01-17T08:32:14.828Z,20.20
2023-01-17T08:34:42.105Z,19.67
2023-01-17T08:37:09.535Z,20.30
2023-01-17T08:39:36.740Z,20.07
2023-01-17T08:42:04.437Z,20.70
2023-01-17T08:44:31.569Z,19.97
2023-01-17T08:46:58.790Z,20.58
2023-01-17T08:49:25.982Z,22.38
2023-01-17T08:51:53.276Z,22.58
2023-01-17T08:54:22.225Z,20.13
2023-01-17T08:56:50.137Z,20.60
2023-01-17T08:59:17.297Z,21.80
2023-01-17T09:01:45.905Z,19.20
2023-01-17T09:04:14.359Z,20.27
2023-01-17T09:06:45.307Z,19.17
2023-01-17T09:09:13.619Z,18.23
2023-01-17T09:11:41.004Z,12.25
2023-01-17T09:14:08.300Z,10.70
2023-01-17T09:16:35.470Z,8.23
2023-01-17T09:19:02.816Z,8.87
2023-01-17T09:21:30.009Z,8.60
2023-01-17T09:23:57.317Z,6.47
2023-01-17T09:26:27.757Z,4.68
2023-01-17T09:28:55.390Z,6.38
2023-01-17T09:31:23.390Z,7.47
2023-01-17T09:33:51.758Z,5.90
2023-01-17T09:36:19.762Z,6.05
2023-01-17T09:38:46.966Z,4.78
2023-01-17T09:41:27.420Z,5.10
2023-01-17T09:43:56.600Z,8.43
2023-01-17T09:46:27.877Z,6.43
2023-01-17T09:49:20.731Z,7.83
2023-01-17T09:51:47.916Z,8.10
2023-01-17T09:54:23.479Z,5.35
2023-01-17T09:57:09.534Z,5.55
2023-01-17T10:00:02.077Z,6.20
2023-01-17T10:02:45.506Z,8.18
2023-01-17T10:05:31.132Z,7.43
2023-01-17T10:08:19.928Z,6.50
2023-01-17T10:11:13.381Z,5.40
2023-01-17T10:13:48.837Z,8.32
2023-01-17T10:16:34.112Z,6.45
2023-01-17T10:19:16.012Z,7.82
2023-01-17T10:22:20.254Z,6.55
2023-01-17T10:24:57.204Z,8.23
2023-01-17T10:27:51.341Z,5.65
2023-01-17T10:30:25.592Z,6.78
2023-01-17T10:32:52.931Z,5.87
2023-01-17T10:35:28.362Z,8.40
2023-01-17T10:37:58.374Z,15.60
2023-01-17T10:40:58.560Z,18.00
2023-01-17T10:43:30.683Z,16.60
2023-01-17T10:45:58.106Z,7.37
2023-01-17T10:48:43.959Z,4.57
2023-01-17T10:51:50.487Z,8.23
2023-01-17T10:54:32.434Z,5.80
2023-01-17T10:56:59.690Z,5.28
2023-01-17T10:59:34.957Z,5.68
2023-01-17T11:02:06.935Z,7.20
2023-01-17T11:04:37.131Z,5.72
2023-01-17T11:07:14.732Z,6.33
2023-01-17T11:09:44.416Z,6.57
2023-01-17T11:12:30.011Z,4.72
2023-01-17T11:15:17.663Z,6.07
2023-01-17T11:17:53.185Z,5.10
2023-01-17T11:20:38.330Z,8.40
2023-01-17T11:23:21.208Z,4.80
2023-01-17T11:25:55.390Z,4.15
2023-01-17T11:28:30.617Z,5.85
2023-01-17T11:31:00.626Z,4.57
2023-01-17T11:33:46.888Z,5.35
2023-01-17T11:36:27.420Z,5.83
2023-01-17T11:39:04.109Z,4.68
2023-01-17T11:41:37.243Z,5.75
2023-01-17T11:44:25.662Z,7.32
2023-01-17T11:47:19.223Z,4.70
2023-01-17T11:49:48.919Z,5.55
2023-01-17T11:52:32.982Z,5.78
2023-01-17T11:55:00.448Z,5.50
2023-01-17T11:57:35.882Z,6.43
2023-01-17T12:00:23.909Z,5.75
2023-01-17T12:03:15.290Z,7.83
2023-01-17T12:05:53.536Z,5.53
2023-01-17T12:08:56.982Z,4.18
2023-01-17T12:12:15.413Z,3.63
2023-01-17T12:14:49.103Z,4.95
2023-01-17T12:17:28.565Z,5.57
2023-01-17T12:20:00.941Z,5.75
2023-01-17T12:22:43.211Z,5.03
2023-01-17T12:25:32.179Z,4.70
2023-01-17T12:28:20.480Z,6.13
2023-01-17T12:31:03.173Z,6.03
2023-01-17T12:33:43.612Z,4.00
2023-01-17T12:36:35.245Z,3.97
2023-01-17T12:39:09.305Z,3.75
2023-01-17T12:41:51.300Z,3.25
2023-01-17T12:44:22.092Z,3.67
2023-01-17T12:47:02.832Z,3.75
2023-01-17T12:49:46.478Z,2.95
2023-01-17T12:52:28.749Z,3.42
2023-01-17T12:55:01.931Z,5.18
2023-01-17T12:57:35.717Z,3.70
2023-01-17T13:00:07.203Z,3.83
2023-01-17T13:02:55.095Z,6.28
2023-01-17T13:05:41.741Z,3.83
2023-01-17T13:08:26.940Z,4.65
2023-01-17T13:10:57.137Z,3.57
2023-01-17T13:13:29.505Z,2.50
2023-01-17T13:16:14.493Z,3.17
2023-01-17T13:18:47.435Z,4.65
2023-01-17T13:21:27.438Z,2.93
2023-01-17T13:23:59.055Z,3.47
2023-01-17T13:26:48.753Z,3.63
2023-01-17T13:29:32.284Z,2.95
2023-01-17T13:32:36.809Z,3.20
2023-01-17T13:35:22.531Z,4.05
2023-01-17T13:38:18.352Z,3.40
2023-01-17T13:40:58.459Z,2.80
2023-01-17T13:43:34.396Z,3.08
2023-01-17T13:46:03.325Z,2.78
2023-01-17T13:48:38.428Z,3.15
2023-01-17T13:51:10.144Z,3.60
2023-01-17T13:53:39.972Z,2.40
2023-01-17T13:56:19.177Z,3.67
2023-01-17T13:58:54.581Z,4.75
2023-01-17T14:01:25.118Z,4.00
2023-01-17T14:03:52.431Z,3.00
2023-01-17T14:06:45.527Z,2.40
2023-01-17T14:09:12.698Z,3.38
2023-01-17T14:12:01.185Z,3.85
2023-01-17T14:14:40.357Z,2.30
2023-01-17T14:17:16.593Z,2.20
2023-01-17T14:19:48.356Z,2.53
2023-01-17T14:22:18.602Z,3.63
2023-01-17T14:25:03.816Z,3.03
2023-01-17T14:27:34.611Z,3.65
2023-01-17T14:30:16.159Z,2.40
2023-01-17T14:33:02.338Z,2.28
2023-01-17T14:35:36.829Z,3.13
2023-01-17T14:38:31.592Z,2.90
2023-01-17T14:41:13.209Z,3.25
2023-01-17T14:43:42.853Z,1.92
2023-01-17T14:46:32.184Z,2.10
2023-01-17T14:49:05.750Z,3.17
2023-01-17T14:51:35.377Z,2.53
2023-01-17T14:54:14.501Z,3.60
2023-01-17T14:56:44.806Z,1.30
2023-01-17T14:59:19.189Z,2.60
2023-01-17T15:02:08.213Z,3.40
2023-01-17T15:04:39.223Z,2.80
2023-01-17T15:07:07.588Z,1.83
2023-01-17T15:09:37.339Z,2.78
2023-01-17T15:12:08.263Z,2.35
2023-01-17T15:14:40.002Z,4.70
2023-01-17T15:17:11.092Z,12.75
2023-01-17T15:19:43.514Z,14.82
2023-01-17T15:22:11.543Z,16.73
2023-01-17T15:24:44.595Z,17.05
2023-01-17T15:27:16.843Z,16.73
2023-01-17T15:29:45.652Z,17.35
2023-01-17T15:32:24.015Z,18.52
2023-01-17T15:34:52.276Z,17.90
2023-01-17T15:37:29.594Z,18.88
2023-01-17T15:40:16.976Z,18.98
2023-01-17T15:42:47.547Z,18.75
2023-01-17T15:45:19.773Z,19.38
2023-01-17T15:47:47.936Z,19.02
2023-01-17T15:50:24.763Z,18.15
2023-01-17T15:53:04.589Z,18.52
2023-01-17T15:55:37.157Z,17.52
2023-01-17T15:58:21.119Z,19.10
2023-01-17T16:00:48.800Z,18.92
2023-01-17T16:03:31.170Z,20.88
2023-01-17T16:06:01.045Z,20.65
2023-01-17T16:08:29.662Z,20.80
2023-01-17T16:11:02.636Z,20.35
2023-01-17T16:13:31.960Z,20.93
2023-01-17T16:16:11.479Z,20.63
2023-01-17T16:18:40.254Z,20.63
2023-01-17T16:21:16.870Z,18.65
2023-01-17T16:23:44.203Z,19.77
2023-01-17T16:26:11.396Z,20.08
2023-01-17T16:28:38.843Z,19.33
2023-01-17T16:31:06.197Z,18.85
2023-01-17T16:33:33.587Z,17.42
2023-01-17T16:36:00.845Z,19.48
2023-01-17T16:38:28.105Z,19.85
2023-01-17T16:40:55.349Z,18.57
2023-01-17T16:43:22.730Z,22.13
2023-01-17T16:45:53.131Z,19.77
2023-01-17T16:48:21.031Z,20.80
2023-01-17T16:50:50.827Z,20.58
2023-01-17T16:53:26.591Z,20.83
2023-01-17T16:55:59.281Z,19.95
2023-01-17T16:58:27.314Z,20.45
2023-01-17T17:00:56.481Z,20.93
2023-01-17T17:03:23.764Z,20.85
2023-01-17T17:05:59.840Z,21.25
2023-01-17T17:08:29.300Z,20.23
2023-01-17T17:11:17.335Z,20.95
2023-01-17T17:13:49.555Z,21.67
2023-01-17T17:16:17.554Z,22.13
2023-01-17T17:18:46.697Z,21.75
2023-01-17T17:21:14.575Z,22.37
2023-01-17T17:23:41.762Z,24.35
2023-01-17T17:26:09.010Z,23.00
2023-01-17T17:28:36.593Z,23.77
2023-01-17T17:31:07.053Z,22.80
2023-01-17T17:33:35.237Z,22.17
2023-01-17T17:36:07.867Z,22.55
2023-01-17T17:38:35.131Z,23.42
2023-01-17T17:41:07.456Z,22.25
2023-01-17T17:43:40.475Z,26.02
2023-01-17T17:46:08.383Z,26.17
2023-01-17T17:48:36.178Z,24.48
2023-01-17T17:51:06.970Z,26.17
2023-01-17T17:53:34.530Z,25.30
2023-01-17T17:56:06.449Z,24.42
2023-01-17T17:58:34.950Z,31.50
2023-01-17T18:01:03.556Z,22.30
2023-01-17T18:03:31.287Z,22.88
2023-01-17T18:06:07.376Z,23.05
2023-01-17T18:08:35.799Z,22.67
2023-01-17T18:11:14.794Z,25.77
2023-01-17T18:13:42.805Z,29.33
2023-01-17T18:16:15.116Z,26.50
2023-01-17T18:18:45.716Z,23.33
2023-01-17T18:21:28.349Z,24.23
2023-01-17T18:23:58.741Z,23.10
2023-01-17T18:26:31.701Z,22.80
2023-01-17T18:29:00.142Z,24.73
2023-01-17T18:31:28.756Z,25.33
2023-01-17T18:33:57.728Z,24.05
2023-01-17T18:36:27.614Z,22.70
2023-01-17T18:38:55.111Z,24.15
2023-01-17T18:41:27.236Z,24.30
2023-01-17T18:43:57.728Z,27.73
2023-01-17T18:46:26.392Z,23.85
2023-01-17T18:48:56.343Z,24.05
2023-01-17T18:51:24.075Z,24.50
2023-01-17T18:53:52.943Z,27.08
2023-01-17T18:56:21.885Z,25.75
2023-01-17T18:58:50.386Z,26.52
2023-01-17T19:01:24.994Z,23.95
2023-01-17T19:03:54.553Z,25.73
2023-01-17T19:06:28.129Z,23.55
2023-01-17T19:08:55.310Z,25.75
2023-01-17T19:11:23.641Z,27.53
2023-01-17T19:13:52.401Z,27.20
2023-01-17T19:16:25.538Z,26.85
2023-01-17T19:18:52.861Z,27.00
2023-01-17T19:21:22.245Z,26.07
2023-01-17T19:23:50.513Z,25.10
2023-01-17T19:26:20.338Z,26.37
2023-01-17T19:28:48.652Z,24.70
2023-01-17T19:31:21.946Z,24.80
2023-01-17T19:33:51.911Z,26.52
2023-01-17T19:36:23.369Z,24.52
2023-01-17T19:39:03.572Z,24.08
2023-01-17T19:41:33.261Z,23.35
2023-01-17T19:44:03.198Z,25.35
2023-01-17T19:46:30.857Z,25.27
2023-01-17T19:48:58.358Z,24.67
2023-01-17T19:51:29.164Z,23.15
2023-01-17T19:53:59.094Z,23.83
2023-01-17T19:56:29.600Z,24.30
2023-01-17T19:59:01.855Z,22.90
2023-01-17T20:01:34.038Z,24.10
2023-01-17T20:04:02.930Z,24.98
2023-01-17T20:06:36.735Z,23.55
2023-01-17T20:09:05.372Z,25.98
2023-01-17T20:11:32.650Z,25.70
2023-01-17T20:14:00.284Z,23.20
2023-01-17T20:16:30.120Z,25.25
2023-01-17T20:18:58.847Z,23.83
2023-01-17T20:21:27.892Z,24.35
2023-01-17T20:23:57.013Z,25.20
2023-01-17T20:26:30.830Z,23.63
2023-01-17T20:28:58.091Z,22.90
2023-01-17T20:31:26.011Z,22.77
2023-01-17T20:33:55.612Z,26.08
2023-01-17T20:36:25.414Z,24.52
2023-01-17T20:38:54.297Z,26.85
2023-01-17T20:41:32.698Z,24.45
2023-01-17T20:44:01.677Z,24.45
2023-01-17T20:46:35.576Z,23.30
2023-01-17T20:49:06.953Z,22.55
2023-01-17T20:51:34.601Z,23.73
2023-01-17T20:54:04.951Z,23.47
2023-01-17T20:56:37.509Z,23.45
2023-01-17T20:59:07.599Z,22.23
2023-01-17T21:01:35.644Z,22.60
2023-01-17T21:04:03.448Z,23.42
2023-01-17T21:06:31.130Z,22.65
2023-01-17T21:08:59.721Z,23.83
2023-01-17T21:11:27.699Z,23.42
2023-01-17T21:13:55.036Z,23.90
2023-01-17T21:16:23.120Z,22.98
2023-01-17T21:18:51.816Z,23.10
2023-01-17T21:21:25.233Z,23.20
2023-01-17T21:23:54.527Z,23.27
2023-01-17T21:26:25.599Z,24.20
2023-01-17T21:28:53.609Z,24.00
2023-01-17T21:31:29.450Z,24.00
2023-01-17T21:34:02.554Z,26.30
2023-01-17T21:36:37.787Z,24.23
2023-01-17T21:39:10.098Z,22.27
2023-01-17T21:41:39.293Z,23.75
2023-01-17T21:44:11.386Z,23.88
2023-01-17T21:46:39.716Z,24.10
2023-01-17T21:49:10.475Z,24.53
2023-01-17T21:52:02.089Z,24.25
2023-01-17T21:54:48.892Z,23.55
2023-01-17T21:57:53.324Z,22.77
2023-01-17T22:00:20.557Z,24.00
2023-01-17T22:02:48.179Z,25.10
2023-01-17T22:05:16.679Z,22.48
2023-01-17T22:08:04.431Z,23.17
2023-01-17T22:10:32.488Z,24.08
2023-01-17T22:12:59.695Z,23.60
2023-01-17T22:15:26.811Z,21.92
2023-01-17T22:17:54.048Z,22.77
2023-01-17T22:20:21.297Z,22.73
2023-01-17T22:22:48.471Z,23.77
2023-01-17T22:25:15.794Z,22.38
2023-01-17T22:27:42.918Z,22.00
2023-01-17T22:30:12.998Z,23.88
2023-01-17T22:32:40.662Z,22.77
2023-01-17T22:35:09.371Z,22.80
2023-01-17T22:37:36.650Z,23.75
2023-01-17T22:40:05.785Z,22.38
2023-01-17T22:42:34.314Z,22.83
2023-01-17T22:45:01.850Z,22.65
2023-01-17T22:47:29.203Z,23.45
2023-01-17T22:49:56.809Z,23.20
2023-01-17T22:52:24.021Z,23.08
2023-01-17T22:54:51.242Z,22.98
2023-01-17T22:57:18.558Z,23.08
2023-01-17T22:59:45.774Z,22.67
2023-01-17T23:02:14.537Z,22.93
2023-01-17T23:04:42.911Z,22.25
2023-01-17T23:07:10.368Z,21.75
2023-01-17T23:09:37.587Z,22.92
2023-01-17T23:12:05.067Z,22.95
2023-01-17T23:14:55.206Z,22.55
2023-01-17T23:17:42.488Z,23.87
2023-01-17T23:20:10.787Z,23.25
2023-01-17T23:22:38.189Z,23.88
2023-01-17T23:25:07.517Z,22.98
2023-01-17T23:28:04.061Z,23.15
2023-01-17T23:30:37.280Z,23.38
2023-01-17T23:33:22.417Z,22.58
2023-01-17T23:35:49.558Z,24.00
2023-01-17T23:38:30.974Z,21.20
2023-01-17T23:41:27.245Z,22.58
2023-01-17T23:43:58.881Z,21.95
2023-01-17T23:46:26.667Z,21.60
2023-01-17T23:48:55.005Z,21.75
2023-01-17T23:51:22.422Z,22.52
2023-01-17T23:53:52.032Z,22.98
2023-01-17T23:56:22.899Z,22.90
2023-01-17T23:58:50.287Z,23.70
